Time;durP1;ratioP1;P1;durP2;ratioP2;P2;SDS_P1;SDS_P2;PMS_P1;PMS_P2;Temp;Humidity;BMP_temperature;BMP_pressure;BME280_temperature;BME280_humidity;BME280_pressure;Samples;Min_cycle;Max_cycle;Signal;HPM_P1;HPM_P2
2024/04/12 00:06:20;;;;;;;18.10;11.10;;;;;;;8.91;72.44;100925.41;449217;1235;140205;-54
2024/04/12 00:16:24;;;;;;;14.40;10.20;;;;;;;9.07;72.59;100920.81;449440;1238;139938;-54
2024/04/12 00:26:30;;;;;;;10.10;8.60;;;;;;;9.17;72.36;100915.05;449566;1237;138125;-53
2024/04/12 00:36:35;;;;;;;11.90;9.10;;;;;;;9.22;71.92;100908.22;449306;1239;139518;-54
2024/04/12 00:46:40;;;;;;;13.40;8.10;;;;;;;9.22;71.63;100895.11;449271;1237;139574;-54
2024/04/12 00:56:47;;;;;;;11.90;9.00;;;;;;;9.20;72.37;100885.79;450129;1236;139590;-67
2024/04/12 01:06:50;;;;;;;16.10;8.80;;;;;;;9.06;72.74;100880.67;449129;1237;140089;-67
2024/04/12 01:16:54;;;;;;;10.10;7.60;;;;;;;8.88;72.83;100881.17;449183;1234;139678;-67
2024/04/12 01:26:58;;;;;;;11.30;9.00;;;;;;;8.68;73.51;100889.21;448706;1237;411247;-67
2024/04/12 01:37:03;;;;;;;16.60;9.10;;;;;;;8.48;74.03;100885.87;448952;1234;140101;-54
2024/04/12 01:47:09;;;;;;;12.20;7.50;;;;;;;8.25;74.54;100882.79;448801;1238;138969;-52
2024/04/12 01:57:15;;;;;;;13.50;8.40;;;;;;;8.07;75.18;100881.11;448807;1239;139780;-52
2024/04/12 02:07:18;;;;;;;11.50;8.60;;;;;;;7.96;75.48;100882.67;448048;1234;138845;-52
2024/04/12 02:17:23;;;;;;;8.80;7.70;;;;;;;7.87;75.83;100875.11;448822;1238;139278;-54
2024/04/12 02:27:29;;;;;;;8.70;7.80;;;;;;;7.81;76.28;100879.84;449701;1239;139359;-52
2024/04/12 02:37:34;;;;;;;9.30;6.80;;;;;;;7.87;76.74;100892.55;448970;1237;138621;-52
2024/04/12 02:47:38;;;;;;;10.00;8.30;;;;;;;7.99;77.13;100892.36;449262;1237;139247;-54
2024/04/12 02:57:45;;;;;;;11.80;6.60;;;;;;;8.08;77.39;100889.29;449197;1237;139187;-54
2024/04/12 03:07:51;;;;;;;8.40;7.50;;;;;;;8.17;77.62;100891.92;448050;1234;139436;-55
2024/04/12 03:17:55;;;;;;;13.40;7.80;;;;;;;8.29;78.09;100891.88;449061;1234;139434;-55
2024/04/12 03:27:59;;;;;;;9.50;7.30;;;;;;;8.37;78.73;100894.41;448689;1237;139420;-55
2024/04/12 03:48:24;;;;;;;8.80;7.90;;;;;;;8.43;79.09;100894.21;449300;1237;139815;-54
2024/04/12 03:58:29;;;;;;;14.30;7.40;;;;;;;8.36;79.09;100892.01;449179;1237;138877;-53
2024/04/12 04:08:47;;;;;;;15.50;8.40;;;;;;;8.35;79.26;100890.64;448973;1237;139060;-54
2024/04/12 04:18:50;;;;;;;;;;;;;;;8.48;79.59;100897.39;449679;1237;140761;-53
2024/04/12 04:28:54;;;;;;;16.50;10.30;;;;;;;8.62;79.69;100896.05;448635;1237;125652;-55
2024/04/12 04:38:58;;;;;;;13.10;8.50;;;;;;;8.88;79.61;100890.95;449390;1237;139188;-54
2024/04/12 04:49:04;;;;;;;13.30;9.20;;;;;;;9.12;79.10;100893.58;449390;1235;139215;-54
2024/04/12 04:59:09;;;;;;;14.00;7.80;;;;;;;9.38;79.07;100896.61;449066;1237;139062;-55
2024/04/12 05:09:12;;;;;;;14.10;7.30;;;;;;;9.75;78.51;100886.48;449325;1234;139164;-55
2024/04/12 05:19:16;;;;;;;14.10;7.90;;;;;;;10.18;78.04;100880.54;448324;1238;139091;-57
2024/04/12 05:29:19;;;;;;;19.80;7.00;;;;;;;13.80;82.27;100882.89;448976;1235;139901;-69
2024/04/12 05:39:23;;;;;;;12.10;6.90;;;;;;;21.35;71.36;100884.11;448330;1234;139270;-70
2024/04/12 05:49:29;;;;;;;22.50;6.60;;;;;;;26.22;57.51;100886.86;449938;1235;140006;-71
2024/04/12 05:59:33;;;;;;;12.50;6.40;;;;;;;29.63;47.66;100894.06;449636;1235;139176;-72
2024/04/12 06:09:37;;;;;;;5.70;5.10;;;;;;;33.17;41.88;100893.58;448881;1237;138552;-71
2024/04/12 06:19:41;;;;;;;16.70;5.50;;;;;;;35.71;36.04;100895.38;449064;1235;138467;-65
2024/04/12 06:29:46;;;;;;;8.10;5.70;;;;;;;36.52;31.67;100899.80;451980;1237;138623;-73
2024/04/12 06:39:50;;;;;;;14.90;5.40;;;;;;;31.72;29.81;100899.11;462812;1234;139110;-68
2024/04/12 06:49:54;;;;;;;11.50;5.10;;;;;;;26.27;32.42;100906.65;462611;1235;138341;-71
2024/04/12 07:00:00;;;;;;;12.20;4.40;;;;;;;23.29;35.23;100914.67;457075;1235;138458;-64
2024/04/12 07:10:09;;;;;;;9.80;5.00;;;;;;;20.84;38.20;100922.81;462712;1234;140068;-53
2024/04/12 07:20:13;;;;;;;8.60;4.10;;;;;;;19.51;40.98;100923.84;462580;1234;139109;-73
2024/04/12 07:30:20;;;;;;;11.80;5.00;;;;;;;18.68;42.70;100925.73;462625;1233;138860;-67
2024/04/12 07:40:30;;;;;;;10.80;4.50;;;;;;;18.22;44.63;100925.11;462619;1235;139246;-63
2024/04/12 07:50:33;;;;;;;13.40;4.40;;;;;;;18.63;45.60;100925.21;462683;1235;138608;-66
2024/04/12 08:00:45;;;;;;;10.80;5.40;;;;;;;18.42;46.33;100926.45;460233;1234;139636;-61
2024/04/12 08:10:56;;;;;;;8.10;3.40;;;;;;;18.30;47.14;100922.77;448750;1238;138947;-65
2024/04/12 08:21:07;;;;;;;5.90;3.80;;;;;;;18.33;47.99;100920.35;462636;1234;138450;-58
2024/04/12 08:31:12;;;;;;;5.20;3.10;;;;;;;18.35;48.34;100912.44;462526;1233;138243;-61
2024/04/12 08:41:18;;;;;;;5.10;3.40;;;;;;;18.58;48.57;100904.87;462717;1233;138790;-67
2024/04/12 08:51:22;;;;;;;6.30;3.40;;;;;;;18.49;48.95;100907.27;462804;1233;139091;-59
2024/04/12 09:01:26;;;;;;;7.90;3.50;;;;;;;18.51;49.32;100907.18;453352;1234;139164;-63
2024/04/12 09:11:31;;;;;;;23.20;6.00;;;;;;;18.26;49.58;100902.43;462443;1235;139412;-61
2024/04/12 09:21:47;;;;;;;11.80;3.30;;;;;;;17.79;50.57;100902.17;450395;1236;139038;-69
2024/04/12 09:42:13;;;;;;;6.40;3.30;;;;;;;17.89;51.70;100900.02;462510;1233;139374;-58
2024/04/12 10:44:16;;;;;;;7.10;2.90;;;;;;;17.47;52.86;100872.95;450967;1239;138366;-64
2024/04/12 10:54:23;;;;;;;15.20;2.70;;;;;;;17.42;53.24;100867.66;449187;1239;139098;-66
2024/04/12 11:04:34;;;;;;;4.80;2.00;;;;;;;17.42;53.25;100855.12;453866;1235;139760;-62
2024/04/12 11:14:38;;;;;;;3.70;2.90;;;;;;;17.33;53.26;100848.52;453573;1236;138829;-62
2024/04/12 11:35:05;;;;;;;6.50;2.70;;;;;;;17.73;54.04;100831.95;454420;1235;138993;-59
2024/04/12 11:45:12;;;;;;;6.60;2.90;;;;;;;17.75;53.61;100828.27;462224;1235;138993;-57
2024/04/12 11:55:21;;;;;;;27.70;4.10;;;;;;;17.78;53.58;100822.54;462135;1235;139322;-57
2024/04/12 12:05:28;;;;;;;6.90;2.80;;;;;;;17.62;53.66;100814.55;462169;1235;139975;-56
2024/04/12 12:15:32;;;;;;;12.70;2.70;;;;;;;17.66;54.15;100803.60;462350;1235;138997;-58
2024/04/12 12:25:35;;;;;;;5.10;3.10;;;;;;;18.16;54.13;100788.21;462219;1234;139405;-60
2024/04/12 12:35:39;;;;;;;14.40;3.80;;;;;;;18.50;53.31;100779.60;462265;1235;139226;-61
2024/04/12 12:45:42;;;;;;;14.60;2.90;;;;;;;18.34;52.75;100771.79;462381;1235;139597;-59
2024/04/12 12:55:47;;;;;;;14.60;3.20;;;;;;;18.05;53.16;100766.77;454263;1235;138927;-62
2024/04/12 13:05:52;;;;;;;10.40;3.70;;;;;;;17.90;53.38;100751.70;448472;1237;138936;-61
2024/04/12 13:15:56;;;;;;;3.40;2.40;;;;;;;17.72;53.59;100741.23;462233;1235;138439;-63
2024/04/12 13:25:59;;;;;;;5.70;3.30;;;;;;;17.56;54.15;100736.04;458176;1235;5147216;-61
2024/04/12 13:36:10;;;;;;;5.70;3.10;;;;;;;17.67;54.51;100723.20;462261;1235;139004;-61
2024/04/12 13:56:37;;;;;;;15.90;4.30;;;;;;;17.97;54.09;100682.32;462444;1235;139007;-63
2024/04/12 14:06:41;;;;;;;8.20;3.40;;;;;;;18.05;54.20;100668.05;460767;1236;139222;-71
2024/04/12 14:16:44;;;;;;;5.10;3.90;;;;;;;18.22;54.15;100655.60;462225;1235;138968;-64
2024/04/12 14:26:47;;;;;;;5.10;2.80;;;;;;;17.95;54.02;100639.59;451482;1237;138287;-67
2024/04/12 14:36:51;;;;;;;4.00;3.00;;;;;;;17.75;54.80;100631.02;449021;1237;138848;-77
2024/04/12 14:46:57;;;;;;;3.50;2.50;;;;;;;17.58;55.07;100610.88;448321;1239;139770;-54
2024/04/12 14:57:00;;;;;;;3.50;2.20;;;;;;;17.34;55.73;100610.59;448018;1239;139179;-54
2024/04/12 15:48:32;;;;;;;4.00;3.10;;;;;;;17.00;57.66;100566.26;456181;1238;139028;-59
2024/04/12 16:19:19;;;;;;;3.70;3.40;;;;;;;16.48;59.20;100543.76;448448;1236;138570;-67
2024/04/12 16:29:23;;;;;;;9.00;4.00;;;;;;;16.15;59.94;100550.57;448487;1238;138525;-60
2024/04/12 16:39:27;;;;;;;7.00;3.30;;;;;;;15.87;60.83;100550.40;462275;1238;139708;-57
2024/04/12 16:49:30;;;;;;;4.30;3.20;;;;;;;15.69;61.57;100537.33;462192;1235;138992;-62
2024/04/12 16:59:34;;;;;;;6.80;4.20;;;;;;;15.49;62.14;100519.63;462222;1235;139394;-64
2024/04/12 17:09:41;;;;;;;4.00;3.20;;;;;;;15.33;62.79;100514.02;459607;1236;138360;-63
2024/04/12 17:19:44;;;;;;;6.70;3.40;;;;;;;15.11;63.36;100501.42;462200;1235;139902;-57
2024/04/12 17:29:49;;;;;;;13.90;5.80;;;;;;;14.84;64.00;100486.34;462007;1235;139480;-58
2024/04/12 17:39:53;;;;;;;10.60;3.80;;;;;;;14.54;64.78;100489.15;462253;1238;139223;-61
2024/04/12 17:49:56;;;;;;;5.20;3.80;;;;;;;14.25;65.72;100473.98;451772;1239;139717;-58
2024/04/12 18:00:00;;;;;;;25.60;17.10;;;;;;;13.96;66.69;100453.47;447680;1235;139051;-58
2024/04/12 18:10:06;;;;;;;28.70;19.70;;;;;;;13.71;67.71;100454.68;448500;1239;140169;-70
2024/04/12 18:20:10;;;;;;;37.00;30.00;;;;;;;13.41;68.73;100455.34;449011;1239;140222;-70
2024/04/12 18:30:13;;;;;;;41.00;29.70;;;;;;;13.08;69.78;100452.55;448168;1238;140028;-57
2024/04/12 18:50:43;;;;;;;41.30;23.10;;;;;;;12.53;71.70;100437.71;448205;1237;141108;-60
2024/04/12 19:00:51;;;;;;;35.50;21.10;;;;;;;12.26;72.52;100436.44;448447;1239;139970;-58
2024/04/12 19:10:55;;;;;;;40.30;20.40;;;;;;;11.98;73.40;100436.09;449443;1239;139864;-67
2024/04/12 19:21:03;;;;;;;28.70;18.40;;;;;;;11.73;74.15;100430.25;462314;1235;139329;-69
2024/04/12 19:31:08;;;;;;;27.80;19.80;;;;;;;11.57;75.04;100432.49;462244;1235;139882;-65
2024/04/12 19:41:14;;;;;;;21.80;15.50;;;;;;;11.50;75.92;100425.20;462184;1235;139234;-59
2024/04/12 19:51:17;;;;;;;26.00;16.10;;;;;;;11.48;76.22;100419.34;462317;1235;139389;-58
2024/04/12 20:01:21;;;;;;;27.50;16.00;;;;;;;11.47;76.69;100418.46;462127;1238;139377;-58
2024/04/12 20:11:26;;;;;;;17.70;12.70;;;;;;;11.44;77.15;100415.52;451451;1235;140090;-59
2024/04/12 20:21:31;;;;;;;20.60;14.00;;;;;;;11.33;77.33;100401.73;462355;1235;139746;-69
2024/04/12 20:31:37;;;;;;;25.60;18.10;;;;;;;11.28;78.08;100402.84;449045;1238;140175;-63
2024/04/12 20:41:42;;;;;;;;;;;;;;;11.24;78.63;100400.13;459664;1235;140259;-72
2024/04/12 20:51:46;;;;;;;38.90;23.10;;;;;;;11.12;78.67;100394.40;462273;1235;126486;-66
2024/04/12 21:01:50;;;;;;;52.00;32.30;;;;;;;10.95;78.61;100388.48;449128;1239;139931;-61
2024/04/12 21:11:54;;;;;;;48.60;28.60;;;;;;;10.69;78.94;100381.96;462119;1236;139549;-62
2024/04/12 21:21:58;;;;;;;43.60;26.60;;;;;;;10.45;79.74;100379.46;450378;1235;139373;-57
2024/04/12 21:32:01;;;;;;;45.90;27.20;;;;;;;10.24;80.42;100366.35;449673;1239;139951;-57
2024/04/12 21:42:06;;;;;;;39.30;26.70;;;;;;;10.04;81.50;100363.30;448445;1239;139956;-57
2024/04/12 21:52:10;;;;;;;39.60;26.60;;;;;;;9.84;82.22;100356.20;448180;1240;139482;-56
2024/04/12 22:02:16;;;;;;;34.70;25.00;;;;;;;9.64;83.13;100347.02;448556;1239;140179;-56
2024/04/12 22:12:19;;;;;;;42.20;24.70;;;;;;;9.49;83.82;100354.73;448995;1240;139418;-57
2024/04/12 22:22:26;;;;;;;39.70;25.10;;;;;;;9.40;84.25;100342.20;449590;1237;139278;-66
2024/04/12 22:32:29;;;;;;;39.70;22.20;;;;;;;9.26;84.37;100329.06;448430;1239;139301;-65
2024/04/12 22:42:33;;;;;;;28.90;22.00;;;;;;;9.10;84.29;100321.06;448036;1235;139618;-58
2024/04/12 22:52:42;;;;;;;33.20;21.60;;;;;;;8.99;84.96;100311.27;447241;1241;139671;-59
2024/04/12 23:02:48;;;;;;;24.60;19.60;;;;;;;8.91;85.65;100300.45;449176;1239;140329;-59
2024/04/12 23:12:52;;;;;;;32.10;20.00;;;;;;;8.86;86.70;100297.02;448924;1239;139304;-59
2024/04/12 23:22:55;;;;;;;35.70;19.60;;;;;;;8.78;86.92;100291.08;448743;1239;139292;-58
2024/04/12 23:32:58;;;;;;;24.60;18.90;;;;;;;8.70;87.39;100288.48;448819;1240;139290;-59
2024/04/12 23:43:02;;;;;;;24.20;19.00;;;;;;;8.68;88.56;100282.07;449479;1238;140021;-59
2024/04/12 23:53:05;;;;;;;23.40;19.00;;;;;;;8.68;89.04;100277.58;449484;1238;139681;-58
